createdAt,value
2022-11-09T00:04:34.033Z,47.83
2022-11-09T00:09:36.396Z,46.97
2022-11-09T00:14:39.348Z,44.72
2022-11-09T00:19:41.648Z,41.08
2022-11-09T00:24:44.154Z,41.83
2022-11-09T00:29:46.462Z,43.22
2022-11-09T00:34:48.952Z,43.42
2022-11-09T00:39:51.196Z,48.40
2022-11-09T00:44:53.351Z,39.75
2022-11-09T00:49:56.001Z,38.88
2022-11-09T00:54:58.181Z,35.15
2022-11-09T01:00:00.369Z,36.92
2022-11-09T01:05:02.547Z,36.90
2022-11-09T01:10:06.417Z,36.10
2022-11-09T01:15:09.298Z,36.67
2022-11-09T01:20:12.552Z,45.13
2022-11-09T01:25:15.821Z,40.45
2022-11-09T01:30:18.128Z,39.58
2022-11-09T01:35:20.701Z,35.35
2022-11-09T01:40:22.895Z,38.63
2022-11-09T01:45:27.338Z,35.28
2022-11-09T01:50:56.462Z,38.42
2022-11-09T01:56:03.394Z,39.10
2022-11-09T02:01:11.586Z,34.60
2022-11-09T02:06:16.958Z,36.40
2022-11-09T02:11:22.913Z,35.40
2022-11-09T02:16:26.945Z,37.85
2022-11-09T02:21:32.071Z,36.67
2022-11-09T02:26:40.055Z,35.88
2022-11-09T02:31:47.947Z,37.33
2022-11-09T02:36:50.363Z,33.08
2022-11-09T02:42:02.938Z,38.05
2022-11-09T02:47:06.159Z,33.88
2022-11-09T02:52:08.528Z,33.70
2022-11-09T02:57:10.866Z,37.20
2022-11-09T03:02:13.077Z,34.40
2022-11-09T03:07:15.389Z,45.08
2022-11-09T03:12:29.720Z,31.25
2022-11-09T03:17:32.707Z,37.03
2022-11-09T03:22:35.020Z,40.00
2022-11-09T03:27:37.297Z,41.25
2022-11-09T03:32:39.503Z,49.22
2022-11-09T03:37:41.845Z,43.40
2022-11-09T03:42:46.193Z,40.08
2022-11-09T03:47:48.668Z,41.47
2022-11-09T03:52:50.829Z,40.95
2022-11-09T03:57:53.084Z,39.20
2022-11-09T04:02:55.292Z,38.30
2022-11-09T04:07:59.581Z,37.95
2022-11-09T04:13:01.941Z,40.47
2022-11-09T04:18:04.280Z,38.95
2022-11-09T04:23:07.974Z,37.45
2022-11-09T04:28:13.272Z,40.55
2022-11-09T04:33:15.652Z,38.95
2022-11-09T04:38:17.973Z,39.38
2022-11-09T04:43:20.372Z,39.80
2022-11-09T04:48:22.891Z,43.70
2022-11-09T04:53:25.494Z,43.03
2022-11-09T04:58:28.178Z,46.13
2022-11-09T05:03:30.661Z,41.33
2022-11-09T05:08:32.883Z,47.30
2022-11-09T05:13:35.076Z,42.95
2022-11-09T05:18:37.452Z,46.20
2022-11-09T05:23:59.080Z,50.10
2022-11-09T05:29:04.108Z,43.85
2022-11-09T05:34:16.261Z,41.95
2022-11-09T05:39:18.484Z,45.17
2022-11-09T05:44:20.874Z,35.55
2022-11-09T05:49:23.207Z,38.65
2022-11-09T05:54:25.529Z,43.03
2022-11-09T05:59:27.859Z,36.28
2022-11-09T06:04:30.032Z,38.80
2022-11-09T06:09:32.215Z,35.05
2022-11-09T06:14:34.674Z,34.28
2022-11-09T06:19:36.993Z,39.42
2022-11-09T06:24:39.791Z,36.20
2022-11-09T06:29:42.001Z,37.05
2022-11-09T06:34:44.771Z,45.85
2022-11-09T06:39:47.838Z,40.30
2022-11-09T06:44:50.059Z,40.13
2022-11-09T06:49:52.310Z,44.22
2022-11-09T06:54:54.483Z,41.85
2022-11-09T06:59:56.735Z,43.63
2022-11-09T07:04:59.104Z,46.58
2022-11-09T07:10:01.480Z,49.88
2022-11-09T07:15:05.023Z,44.13
2022-11-09T07:20:11.163Z,42.78
2022-11-09T07:25:14.043Z,46.05
2022-11-09T07:30:16.300Z,38.60
2022-11-09T07:35:18.941Z,42.90
2022-11-09T07:40:21.394Z,58.35
2022-11-09T07:45:23.580Z,42.88
2022-11-09T07:50:27.076Z,40.35
2022-11-09T07:55:30.664Z,46.10
2022-11-09T08:00:34.862Z,41.90
2022-11-09T08:05:37.770Z,47.38
2022-11-09T08:10:40.639Z,48.50
2022-11-09T08:15:43.406Z,41.55
2022-11-09T08:20:46.135Z,41.15
2022-11-09T08:25:50.259Z,44.00
2022-11-09T08:30:57.905Z,37.15
2022-11-09T08:36:00.149Z,40.15
2022-11-09T08:41:02.378Z,39.78
2022-11-09T08:46:05.195Z,32.42
2022-11-09T08:51:07.623Z,38.58
2022-11-09T08:56:11.347Z,35.90
2022-11-09T09:01:17.110Z,40.88
2022-11-09T09:06:19.980Z,45.13
2022-11-09T09:11:22.293Z,34.47
2022-11-09T09:16:24.642Z,36.60
2022-11-09T09:21:26.995Z,31.27
2022-11-09T09:26:29.219Z,32.15
2022-11-09T09:31:31.715Z,26.58
2022-11-09T09:36:36.264Z,27.35
2022-11-09T09:41:53.922Z,32.95
2022-11-09T09:47:04.809Z,27.95
2022-11-09T09:52:21.217Z,25.25
2022-11-09T09:57:25.235Z,31.75
2022-11-09T10:02:28.773Z,24.17
2022-11-09T10:08:01.548Z,33.17
2022-11-09T10:19:23.369Z,25.30
2022-11-09T10:30:19.785Z,24.50
2022-11-09T10:35:37.852Z,22.17
2022-11-09T10:41:32.428Z,22.80
2022-11-09T10:47:08.470Z,30.80
2022-11-09T10:52:47.271Z,23.25
2022-11-09T10:58:26.256Z,24.63
2022-11-09T11:03:34.372Z,23.13
2022-11-09T11:08:42.365Z,30.08
2022-11-09T11:13:45.475Z,24.05
2022-11-09T11:18:48.453Z,31.25
2022-11-09T11:24:17.004Z,27.55
2022-11-09T11:29:49.289Z,21.65
2022-11-09T11:35:00.165Z,25.50
2022-11-09T11:40:19.825Z,23.08
2022-11-09T11:45:40.711Z,21.27
2022-11-09T11:50:57.869Z,28.05
2022-11-09T11:56:00.011Z,23.90
2022-11-09T12:01:26.632Z,24.35
2022-11-09T12:06:49.368Z,23.13
2022-11-09T12:12:06.383Z,28.02
2022-11-09T12:17:40.935Z,22.95
2022-11-09T12:23:31.493Z,19.05
2022-11-09T12:29:09.312Z,23.52
2022-11-09T12:40:24.541Z,23.25
2022-11-09T12:45:39.089Z,25.25
2022-11-09T12:50:42.349Z,27.25
2022-11-09T12:55:50.554Z,26.45
2022-11-09T13:00:55.624Z,21.67
2022-11-09T13:06:21.783Z,20.45
2022-11-09T13:11:47.082Z,23.50
2022-11-09T13:17:21.233Z,20.33
2022-11-09T13:22:23.527Z,17.75
2022-11-09T13:27:46.887Z,19.15
2022-11-09T13:33:52.133Z,18.95
2022-11-09T13:39:43.142Z,20.85
2022-11-09T13:44:47.388Z,29.92
2022-11-09T13:49:51.605Z,31.92
2022-11-09T13:54:55.009Z,26.00
2022-11-09T14:00:00.337Z,25.17
2022-11-09T14:05:02.650Z,23.17
2022-11-09T14:10:20.065Z,27.05
2022-11-09T14:15:31.585Z,32.58
2022-11-09T14:21:08.927Z,31.90
2022-11-09T14:26:20.226Z,28.83
2022-11-09T14:31:24.780Z,25.10
2022-11-09T14:36:28.321Z,26.80
2022-11-09T14:41:31.109Z,32.40
2022-11-09T14:46:33.559Z,29.90
2022-11-09T14:51:40.899Z,32.72
2022-11-09T14:56:44.182Z,27.35
2022-11-09T15:02:01.768Z,31.98
2022-11-09T15:07:05.571Z,30.92
2022-11-09T15:12:18.608Z,31.35
2022-11-09T15:17:33.270Z,29.00
2022-11-09T15:22:52.498Z,31.40
2022-11-09T15:28:13.600Z,29.90
2022-11-09T15:33:18.566Z,34.17
2022-11-09T15:38:56.035Z,38.53
2022-11-09T15:43:59.303Z,33.40
2022-11-09T15:49:23.799Z,43.05
2022-11-09T15:54:26.121Z,36.80
2022-11-09T15:59:28.394Z,34.97
2022-11-09T16:04:31.450Z,31.95
2022-11-09T16:09:34.442Z,30.95
2022-11-09T16:14:36.693Z,33.15
2022-11-09T16:19:40.032Z,44.72
2022-11-09T16:24:42.481Z,45.15
2022-11-09T16:29:44.915Z,39.53
2022-11-09T16:34:57.745Z,31.90
2022-11-09T16:40:13.832Z,40.20
2022-11-09T16:45:17.764Z,49.33
2022-11-09T16:50:20.256Z,52.28
2022-11-09T16:55:22.658Z,49.42
2022-11-09T17:00:37.490Z,51.90
2022-11-09T17:05:47.455Z,52.38
2022-11-09T17:10:49.751Z,60.67
2022-11-09T17:15:55.779Z,47.85
2022-11-09T17:20:58.085Z,52.75
2022-11-09T17:26:02.571Z,43.75
2022-11-09T17:31:24.090Z,55.60
2022-11-09T17:36:49.295Z,44.78
2022-11-09T17:41:48.868Z,49.50
2022-11-09T17:46:51.094Z,62.65
2022-11-09T17:51:53.294Z,53.00
2022-11-09T17:56:55.913Z,56.30
2022-11-09T18:01:59.394Z,59.22
2022-11-09T18:07:01.644Z,52.85
2022-11-09T18:12:04.004Z,57.53
2022-11-09T18:17:06.223Z,53.60
2022-11-09T18:22:12.502Z,59.38
2022-11-09T18:27:15.126Z,63.22
2022-11-09T18:32:17.497Z,68.82
2022-11-09T18:37:19.874Z,63.15
2022-11-09T18:42:22.101Z,64.63
2022-11-09T18:47:36.989Z,59.67
2022-11-09T18:52:39.281Z,57.35
2022-11-09T18:57:41.698Z,68.53
2022-11-09T19:02:44.112Z,62.33
2022-11-09T19:07:46.467Z,64.07
2022-11-09T19:12:48.641Z,68.57
2022-11-09T19:17:51.015Z,71.55
2022-11-09T19:22:53.177Z,68.53
2022-11-09T19:27:55.513Z,70.10
2022-11-09T19:32:57.806Z,77.15
2022-11-09T19:38:05.112Z,82.93
2022-11-09T19:43:08.527Z,74.65
2022-11-09T19:48:10.699Z,72.25
2022-11-09T19:53:13.019Z,70.13
2022-11-09T19:58:15.297Z,82.20
2022-11-09T20:03:17.631Z,84.30
2022-11-09T20:08:20.200Z,75.47
2022-11-09T20:13:23.285Z,88.72
2022-11-09T20:18:25.867Z,79.13
2022-11-09T20:23:28.248Z,68.22
2022-11-09T20:28:30.445Z,69.47
2022-11-09T20:33:32.766Z,84.72
2022-11-09T20:38:35.093Z,89.03
2022-11-09T20:43:37.997Z,89.15
2022-11-09T20:48:54.207Z,68.65
2022-11-09T20:54:02.461Z,63.67
2022-11-09T20:59:09.296Z,64.25
2022-11-09T21:04:11.548Z,60.35
2022-11-09T21:09:14.424Z,48.75
2022-11-09T21:14:16.957Z,42.50
2022-11-09T21:19:20.409Z,53.38
2022-11-09T21:24:41.275Z,48.33
2022-11-09T21:29:52.881Z,54.20
2022-11-09T21:34:56.335Z,54.90
2022-11-09T21:39:59.062Z,46.22
2022-11-09T21:45:01.823Z,52.35
2022-11-09T21:50:11.153Z,60.50
2022-11-09T21:55:15.177Z,48.15
2022-11-09T22:00:18.624Z,51.80
2022-11-09T22:05:23.179Z,49.38
2022-11-09T22:10:26.175Z,51.95
2022-11-09T22:15:49.326Z,57.45
2022-11-09T22:20:58.321Z,63.83
2022-11-09T22:26:03.640Z,58.33
2022-11-09T22:31:09.351Z,57.67
2022-11-09T22:36:13.583Z,58.35
2022-11-09T22:41:16.858Z,53.35
2022-11-09T22:46:19.795Z,53.20
2022-11-09T22:51:22.833Z,55.60
2022-11-09T22:56:26.263Z,52.55
2022-11-09T23:01:30.413Z,55.70
2022-11-09T23:06:34.467Z,43.15
2022-11-09T23:11:37.125Z,46.58
2022-11-09T23:16:39.941Z,47.00
2022-11-09T23:21:42.518Z,49.72
2022-11-09T23:26:46.343Z,53.38
2022-11-09T23:31:49.256Z,45.72
2022-11-09T23:36:52.237Z,48.60
2022-11-09T23:41:54.798Z,41.50
2022-11-09T23:46:58.217Z,41.63
2022-11-09T23:52:00.743Z,45.97
2022-11-09T23:57:05.121Z,49.97
